createdAt,value
2022-08-09T00:00:34.671Z,1018.22
2022-08-09T00:01:52.615Z,1018.21
2022-08-09T00:02:35.827Z,1018.24
2022-08-09T00:04:05.773Z,1018.24
2022-08-09T00:04:35.711Z,1018.23
2022-08-09T00:06:17.819Z,1018.22
2022-08-09T00:06:35.582Z,1018.23
2022-08-09T00:07:44.683Z,1018.22
2022-08-09T00:08:35.565Z,1018.19
2022-08-09T00:09:34.542Z,1018.18
2022-08-09T00:10:34.552Z,1018.20
2022-08-09T00:12:04.085Z,1018.16
2022-08-09T00:12:35.946Z,1018.16
2022-08-09T00:13:38.441Z,1018.14
2022-08-09T00:14:38.245Z,1018.14
2022-08-09T00:15:57.552Z,1018.15
2022-08-09T00:16:36.811Z,1018.17
2022-08-09T00:18:04.402Z,1018.16
2022-08-09T00:18:36.022Z,1018.16
2022-08-09T00:19:34.784Z,1018.14
2022-08-09T00:20:34.455Z,1018.16
2022-08-09T00:21:34.416Z,1018.19
2022-08-09T00:22:35.332Z,1018.14
2022-08-09T00:23:58.101Z,1018.13
2022-08-09T00:24:35.379Z,1018.14
2022-08-09T00:25:34.396Z,1018.13
2022-08-09T00:26:34.367Z,1018.15
2022-08-09T00:27:36.198Z,1018.16
2022-08-09T00:28:34.458Z,1018.12
2022-08-09T00:30:09.962Z,1018.14
2022-08-09T00:30:35.346Z,1018.11
2022-08-09T00:31:58.723Z,1018.14
2022-08-09T00:32:35.310Z,1018.15
2022-08-09T00:33:50.568Z,1018.12
2022-08-09T00:34:35.292Z,1018.16
2022-08-09T00:35:42.671Z,1018.15
2022-08-09T00:36:35.263Z,1018.14
2022-08-09T00:37:34.239Z,1018.14
2022-08-09T00:38:34.230Z,1018.11
2022-08-09T00:40:13.195Z,1018.15
2022-08-09T00:40:35.269Z,1018.16
2022-08-09T00:44:11.267Z,1018.15
2022-08-09T00:44:11.823Z,1018.13
2022-08-09T00:44:15.996Z,1018.15
2022-08-09T00:44:37.479Z,1018.13
2022-08-09T00:45:34.703Z,1018.13
2022-08-09T00:46:56.183Z,1018.15
2022-08-09T00:47:39.634Z,1018.14
2022-08-09T00:48:34.124Z,1018.13
2022-08-09T00:49:34.112Z,1018.13
2022-08-09T00:50:34.104Z,1018.15
2022-08-09T00:51:54.532Z,1018.14
2022-08-09T00:52:35.434Z,1018.15
2022-08-09T00:53:34.074Z,1018.14
2022-08-09T00:54:35.898Z,1018.16
2022-08-09T00:56:05.368Z,1018.18
2022-08-09T00:56:35.076Z,1018.18
2022-08-09T00:57:35.848Z,1018.17
2022-08-09T00:58:34.017Z,1018.17
2022-08-09T00:59:41.569Z,1018.16
2022-08-09T01:00:35.104Z,1018.22
2022-08-09T01:01:44.619Z,1018.20
2022-08-09T01:02:34.978Z,1018.22
2022-08-09T01:03:36.419Z,1018.22
2022-08-09T01:04:34.950Z,1018.19
2022-08-09T01:05:51.570Z,1018.21
2022-08-09T01:06:35.392Z,1018.21
2022-08-09T01:07:37.825Z,1018.16
2022-08-09T01:08:34.907Z,1018.23
2022-08-09T01:09:36.521Z,1018.20
2022-08-09T01:10:33.889Z,1018.21
2022-08-09T01:11:33.876Z,1018.25
2022-08-09T01:12:34.094Z,1018.26
2022-08-09T01:13:42.087Z,1018.22
2022-08-09T01:14:34.849Z,1018.19
2022-08-09T01:15:33.819Z,1018.21
2022-08-09T01:16:35.243Z,1018.22
2022-08-09T01:17:34.178Z,1018.19
2022-08-09T01:18:33.792Z,1018.18
2022-08-09T01:19:42.769Z,1018.19
2022-08-09T01:20:34.771Z,1018.19
2022-08-09T01:21:41.165Z,1018.19
2022-08-09T01:22:34.867Z,1018.19
2022-08-09T01:24:02.940Z,1018.19
2022-08-09T01:24:34.721Z,1018.20
2022-08-09T01:25:41.793Z,1018.17
2022-08-09T01:26:34.722Z,1018.20
2022-08-09T01:27:33.696Z,1018.18
2022-08-09T01:28:33.693Z,1018.17
2022-08-09T01:29:41.221Z,1018.16
2022-08-09T01:30:51.369Z,1018.20
2022-08-09T01:32:29.448Z,1018.20
2022-08-09T01:32:34.889Z,1018.14
2022-08-09T01:33:33.615Z,1018.18
2022-08-09T01:34:33.624Z,1018.20
2022-08-09T01:35:38.398Z,1018.18
2022-08-09T01:36:34.595Z,1018.18
2022-08-09T01:38:05.840Z,1018.17
2022-08-09T01:38:34.605Z,1018.18
2022-08-09T01:39:33.612Z,1018.15
2022-08-09T01:40:33.556Z,1018.19
2022-08-09T01:41:33.547Z,1018.16
2022-08-09T01:42:33.718Z,1018.15
2022-08-09T01:43:42.105Z,1018.16
2022-08-09T01:44:34.528Z,1018.17
2022-08-09T01:45:33.492Z,1018.17
2022-08-09T01:46:33.490Z,1018.16
2022-08-09T01:47:33.470Z,1018.18
2022-08-09T01:48:34.470Z,1018.16
2022-08-09T01:49:38.916Z,1018.17
2022-08-09T01:50:37.140Z,1018.13
2022-08-09T01:51:34.438Z,1018.12
2022-08-09T01:52:33.562Z,1018.16
2022-08-09T01:53:41.308Z,1018.15
2022-08-09T01:54:34.470Z,1018.12
2022-08-09T01:55:33.380Z,1018.12
2022-08-09T01:56:33.392Z,1018.14
2022-08-09T01:57:40.158Z,1018.10
2022-08-09T01:58:34.343Z,1018.12
2022-08-09T01:59:33.341Z,1018.14
2022-08-09T02:00:35.790Z,1018.11
2022-08-09T02:02:00.293Z,1018.14
2022-08-09T02:02:34.564Z,1018.13
2022-08-09T02:03:33.292Z,1018.17
2022-08-09T02:04:33.283Z,1018.15
2022-08-09T02:05:35.517Z,1018.11
2022-08-09T02:06:34.262Z,1018.15
2022-08-09T02:08:36.109Z,1018.12
2022-08-09T02:08:40.415Z,1018.13
2022-08-09T02:09:42.306Z,1018.19
2022-08-09T02:10:34.232Z,1018.14
2022-08-09T02:11:42.212Z,1018.15
2022-08-09T02:12:34.332Z,1018.15
2022-08-09T02:13:40.243Z,1018.14
2022-08-09T02:14:34.163Z,1018.22
2022-08-09T02:15:48.800Z,1018.17
2022-08-09T02:16:53.290Z,1018.21
2022-08-09T02:17:59.870Z,1018.19
2022-08-09T02:18:34.126Z,1018.20
2022-08-09T02:19:38.704Z,1018.22
2022-08-09T02:20:34.373Z,1018.19
2022-08-09T02:21:34.247Z,1018.17
2022-08-09T02:22:35.821Z,1018.19
2022-08-09T02:23:40.025Z,1018.17
2022-08-09T02:24:34.046Z,1018.19
2022-08-09T02:25:33.049Z,1018.20
2022-08-09T02:26:34.050Z,1018.20
2022-08-09T02:27:57.622Z,1018.24
2022-08-09T02:28:34.008Z,1018.22
2022-08-09T02:29:33.009Z,1018.24
2022-08-09T02:30:32.988Z,1018.24
2022-08-09T02:31:35.591Z,1018.23
2022-08-09T02:32:33.263Z,1018.23
2022-08-09T02:33:38.208Z,1018.19
2022-08-09T02:34:40.852Z,1018.22
2022-08-09T02:36:03.897Z,1018.19
2022-08-09T02:36:33.958Z,1018.18
2022-08-09T02:37:33.109Z,1018.22
2022-08-09T02:38:34.943Z,1018.20
2022-08-09T02:39:33.425Z,1018.22
2022-08-09T02:40:32.913Z,1018.18
2022-08-09T02:41:32.881Z,1018.23
2022-08-09T02:42:33.072Z,1018.20
2022-08-09T02:43:53.923Z,1018.24
2022-08-09T02:44:33.832Z,1018.26
2022-08-09T02:45:32.925Z,1018.23
2022-08-09T02:46:32.865Z,1018.25
2022-08-09T02:47:33.683Z,1018.25
2022-08-09T02:48:33.792Z,1018.26
2022-08-09T02:49:38.677Z,1018.24
2022-08-09T02:50:33.773Z,1018.21
2022-08-09T02:51:32.997Z,1018.18
2022-08-09T02:52:32.902Z,1018.17
2022-08-09T02:53:34.446Z,1018.18
2022-08-09T02:54:32.719Z,1018.20
2022-08-09T02:55:46.658Z,1018.17
2022-08-09T02:56:33.705Z,1018.18
2022-08-09T02:57:40.555Z,1018.13
2022-08-09T02:58:36.757Z,1018.13
2022-08-09T02:59:36.477Z,1018.13
2022-08-09T03:00:32.734Z,1018.10
2022-08-09T03:01:43.226Z,1018.12
2022-08-09T03:02:33.857Z,1018.12
2022-08-09T03:04:12.928Z,1018.13
2022-08-09T03:04:33.616Z,1018.13
2022-08-09T03:05:34.130Z,1018.15
2022-08-09T03:06:32.877Z,1018.16
2022-08-09T03:07:32.578Z,1018.14
2022-08-09T03:08:32.568Z,1018.17
2022-08-09T03:09:33.602Z,1018.11
2022-08-09T03:10:32.549Z,1018.13
2022-08-09T03:12:05.695Z,1018.13
2022-08-09T03:12:33.758Z,1018.16
2022-08-09T03:13:43.748Z,1018.17
2022-08-09T03:14:33.500Z,1018.22
2022-08-09T03:16:04.151Z,1018.23
2022-08-09T03:16:33.490Z,1018.19
2022-08-09T03:17:32.471Z,1018.21
2022-08-09T03:18:32.460Z,1018.18
2022-08-09T03:19:58.126Z,1018.14
2022-08-09T03:20:33.471Z,1018.19
2022-08-09T03:21:36.586Z,1018.23
2022-08-09T03:22:33.584Z,1018.14
2022-08-09T03:23:33.411Z,1018.13
2022-08-09T03:24:42.564Z,1018.16
2022-08-09T03:25:56.944Z,1018.15
2022-08-09T03:26:33.383Z,1018.15
2022-08-09T03:27:44.692Z,1018.18
2022-08-09T03:28:33.343Z,1018.21
2022-08-09T03:29:35.701Z,1018.20
2022-08-09T03:30:36.688Z,1018.21
2022-08-09T03:31:32.335Z,1018.25
2022-08-09T03:32:33.424Z,1018.23
2022-08-09T03:33:54.104Z,1018.27
2022-08-09T03:34:33.275Z,1018.29
2022-08-09T03:36:11.087Z,1018.28
2022-08-09T03:36:33.254Z,1018.27
2022-08-09T03:37:57.160Z,1018.28
2022-08-09T03:38:33.235Z,1018.33
2022-08-09T03:39:37.834Z,1018.35
2022-08-09T03:40:33.215Z,1018.37
2022-08-09T03:41:46.026Z,1018.42
2022-08-09T03:42:33.343Z,1018.40
2022-08-09T03:43:33.121Z,1018.40
2022-08-09T03:44:32.167Z,1018.40
2022-08-09T03:46:02.942Z,1018.43
2022-08-09T03:46:33.156Z,1018.37
2022-08-09T03:47:32.170Z,1018.38
2022-08-09T03:48:33.124Z,1018.36
2022-08-09T03:49:35.649Z,1018.34
2022-08-09T03:50:32.135Z,1018.34
2022-08-09T03:51:43.808Z,1018.34
2022-08-09T03:52:33.397Z,1018.35
2022-08-09T03:53:36.923Z,1018.38
2022-08-09T03:54:34.648Z,1018.34
2022-08-09T03:55:36.103Z,1018.39
2022-08-09T03:56:33.040Z,1018.36
2022-08-09T03:57:32.041Z,1018.38
2022-08-09T03:58:32.026Z,1018.41
2022-08-09T03:59:43.001Z,1018.41
2022-08-09T04:00:33.032Z,1018.45
2022-08-09T04:01:31.982Z,1018.46
2022-08-09T04:02:32.622Z,1018.47
2022-08-09T04:03:46.095Z,1018.49
2022-08-09T04:04:36.238Z,1018.46
2022-08-09T04:05:32.941Z,1018.52
2022-08-09T04:06:32.932Z,1018.45
2022-08-09T04:07:47.454Z,1018.51
2022-08-09T04:08:33.157Z,1018.53
2022-08-09T04:09:47.693Z,1018.55
2022-08-09T04:10:32.924Z,1018.54
2022-08-09T04:11:31.874Z,1018.54
2022-08-09T04:12:31.875Z,1018.51
2022-08-09T04:14:37.084Z,1018.50
2022-08-09T04:14:53.709Z,1018.51
2022-08-09T04:16:18.007Z,1018.52
2022-08-09T04:16:32.825Z,1018.53
2022-08-09T04:17:31.857Z,1018.56
2022-08-09T04:18:31.796Z,1018.58
2022-08-09T04:19:43.250Z,1018.61
2022-08-09T04:20:32.824Z,1018.59
2022-08-09T04:21:31.766Z,1018.61
2022-08-09T04:22:33.065Z,1018.65
2022-08-09T04:23:31.737Z,1018.66
2022-08-09T04:24:31.728Z,1018.67
2022-08-09T04:25:31.723Z,1018.68
2022-08-09T04:26:35.220Z,1018.71
2022-08-09T04:27:32.909Z,1018.71
2022-08-09T04:28:36.289Z,1018.72
2022-08-09T04:29:31.682Z,1018.75
2022-08-09T04:30:31.682Z,1018.71
2022-08-09T04:31:37.705Z,1018.72
2022-08-09T04:32:34.015Z,1018.75
2022-08-09T04:33:31.647Z,1018.76
2022-08-09T04:34:31.958Z,1018.78
2022-08-09T04:35:32.807Z,1018.77
2022-08-09T04:36:31.600Z,1018.76
2022-08-09T04:37:45.049Z,1018.77
2022-08-09T04:38:32.598Z,1018.75
2022-08-09T04:39:31.610Z,1018.76
2022-08-09T04:40:36.553Z,1018.77
2022-08-09T04:41:33.796Z,1018.76
2022-08-09T04:42:33.997Z,1018.77
2022-08-09T04:43:35.771Z,1018.80
2022-08-09T04:44:31.520Z,1018.80
2022-08-09T04:45:35.977Z,1018.80
2022-08-09T04:46:56.935Z,1018.80
2022-08-09T04:47:44.960Z,1018.85
2022-08-09T04:48:33.411Z,1018.84
2022-08-09T04:49:52.347Z,1018.87
2022-08-09T04:50:37.719Z,1018.89
2022-08-09T04:51:33.425Z,1018.89
2022-08-09T04:52:31.434Z,1018.91
2022-08-09T04:53:31.624Z,1018.93
2022-08-09T04:54:31.408Z,1018.93
2022-08-09T04:55:38.984Z,1018.90
2022-08-09T04:56:32.376Z,1018.92
2022-08-09T04:57:53.718Z,1018.90
2022-08-09T04:58:32.965Z,1018.92
2022-08-09T04:59:31.345Z,1018.92
2022-08-09T05:00:31.954Z,1018.95
2022-08-09T05:01:31.326Z,1018.94
2022-08-09T05:02:31.612Z,1018.98
2022-08-09T05:03:43.227Z,1018.96
2022-08-09T05:04:32.382Z,1018.94
2022-08-09T05:05:31.925Z,1018.96
2022-08-09T05:06:35.778Z,1018.95
2022-08-09T05:07:32.035Z,1018.94
2022-08-09T05:08:31.280Z,1018.96
2022-08-09T05:09:42.015Z,1018.99
2022-08-09T05:10:32.230Z,1018.99
2022-08-09T05:11:35.412Z,1018.99
2022-08-09T05:12:32.755Z,1018.98
2022-08-09T05:13:32.939Z,1018.95
2022-08-09T05:14:31.180Z,1018.99
2022-08-09T05:15:38.437Z,1018.95
2022-08-09T05:16:32.207Z,1018.96
2022-08-09T05:18:39.967Z,1018.97
2022-08-09T05:18:42.043Z,1018.95
2022-08-09T05:19:46.251Z,1018.97
2022-08-09T05:20:32.111Z,1018.94
2022-08-09T05:21:36.629Z,1018.95
2022-08-09T05:22:35.877Z,1018.96
2022-08-09T05:24:00.508Z,1018.99
2022-08-09T05:24:32.062Z,1019.01
2022-08-09T05:25:32.605Z,1019.01
2022-08-09T05:26:36.862Z,1019.01
2022-08-09T05:27:32.046Z,1019.03
2022-08-09T05:28:31.023Z,1019.02
2022-08-09T05:29:31.586Z,1019.01
2022-08-09T05:30:31.331Z,1018.98
2022-08-09T05:31:44.125Z,1018.98
2022-08-09T05:32:32.199Z,1019.02
2022-08-09T05:33:32.814Z,1019.02
2022-08-09T05:34:32.297Z,1019.01
2022-08-09T05:35:31.968Z,1019.01
2022-08-09T05:36:31.926Z,1019.02
2022-08-09T05:37:30.935Z,1019.07
2022-08-09T05:38:31.914Z,1019.08
2022-08-09T05:39:36.012Z,1019.06
2022-08-09T05:40:31.885Z,1019.06
2022-08-09T05:41:30.876Z,1019.01
2022-08-09T05:42:30.876Z,1019.02
2022-08-09T05:43:32.003Z,1019.01
2022-08-09T05:44:32.725Z,1019.03
2022-08-09T05:45:52.757Z,1019.02
2022-08-09T05:46:31.828Z,1019.02
2022-08-09T05:47:33.182Z,1018.95
2022-08-09T05:48:32.985Z,1018.98
2022-08-09T05:50:23.425Z,1018.99
2022-08-09T05:50:39.937Z,1018.99
2022-08-09T05:51:43.098Z,1019.05
2022-08-09T05:52:32.022Z,1019.00
2022-08-09T05:53:33.203Z,1018.99
2022-08-09T05:54:30.742Z,1019.00
2022-08-09T05:55:31.384Z,1019.02
2022-08-09T05:56:30.710Z,1019.04
2022-08-09T05:57:55.269Z,1019.05
2022-08-09T05:58:31.684Z,1019.08
2022-08-09T05:59:30.691Z,1019.01
2022-08-09T06:00:30.750Z,1019.04
2022-08-09T06:01:33.535Z,1019.05
2022-08-09T06:02:30.999Z,1019.06
2022-08-09T06:03:44.116Z,1019.02
2022-08-09T06:04:34.808Z,1019.10
2022-08-09T06:05:56.990Z,1019.09
2022-08-09T06:06:31.602Z,1019.10
2022-08-09T06:07:30.605Z,1019.05
2022-08-09T06:08:30.573Z,1019.05
2022-08-09T06:09:53.886Z,1019.10
2022-08-09T06:10:31.564Z,1019.05
2022-08-09T06:11:40.599Z,1019.09
2022-08-09T06:12:31.544Z,1019.09
2022-08-09T06:13:33.656Z,1019.07
2022-08-09T06:14:30.529Z,1019.09
2022-08-09T06:15:30.517Z,1019.12
2022-08-09T06:16:30.496Z,1019.12
2022-08-09T06:17:40.329Z,1019.15
2022-08-09T06:18:31.480Z,1019.15
2022-08-09T06:19:30.487Z,1019.13
2022-08-09T06:20:30.457Z,1019.10
2022-08-09T06:21:30.437Z,1019.12
2022-08-09T06:22:30.457Z,1019.15
2022-08-09T06:23:55.731Z,1019.17
2022-08-09T06:24:31.409Z,1019.12
2022-08-09T06:25:30.400Z,1019.18
2022-08-09T06:26:30.388Z,1019.18
2022-08-09T06:27:42.175Z,1019.17
2022-08-09T06:28:31.985Z,1019.21
2022-08-09T06:29:30.361Z,1019.20
2022-08-09T06:30:30.341Z,1019.23
2022-08-09T06:31:31.511Z,1019.25
2022-08-09T06:33:00.647Z,1019.26
2022-08-09T06:33:40.908Z,1019.23
2022-08-09T06:34:31.301Z,1019.22
2022-08-09T06:35:56.414Z,1019.22
2022-08-09T06:36:31.274Z,1019.28
2022-08-09T06:37:30.297Z,1019.23
2022-08-09T06:38:32.118Z,1019.23
2022-08-09T06:39:48.300Z,1019.20
2022-08-09T06:40:31.254Z,1019.15
2022-08-09T06:42:07.626Z,1019.20
2022-08-09T06:42:33.760Z,1019.22
2022-08-09T06:43:34.346Z,1019.21
2022-08-09T06:44:30.189Z,1019.22
2022-08-09T06:46:05.124Z,1019.25
2022-08-09T06:46:39.704Z,1019.28
2022-08-09T06:47:39.936Z,1019.22
2022-08-09T06:48:31.380Z,1019.21
2022-08-09T06:50:11.795Z,1019.28
2022-08-09T06:50:31.901Z,1019.26
2022-08-09T06:51:30.119Z,1019.30
2022-08-09T06:52:30.261Z,1019.29
2022-08-09T06:53:33.169Z,1019.35
2022-08-09T06:54:31.073Z,1019.32
2022-08-09T06:55:30.073Z,1019.33
2022-08-09T06:56:31.017Z,1019.35
2022-08-09T06:58:01.771Z,1019.34
2022-08-09T07:00:46.630Z,1019.33
2022-08-09T07:00:48.976Z,1019.37
2022-08-09T07:00:49.821Z,1019.36
2022-08-09T07:01:53.755Z,1019.40
2022-08-09T07:02:32.098Z,1019.43
2022-08-09T07:03:29.977Z,1019.39
2022-08-09T07:04:29.976Z,1019.37
2022-08-09T07:05:58.256Z,1019.35
2022-08-09T07:06:30.991Z,1019.39
2022-08-09T07:08:00.050Z,1019.38
2022-08-09T07:08:30.931Z,1019.35
2022-08-09T07:09:55.343Z,1019.38
2022-08-09T07:10:32.233Z,1019.35
2022-08-09T07:11:34.188Z,1019.38
2022-08-09T07:12:38.539Z,1019.36
2022-08-09T07:13:30.871Z,1019.38
2022-08-09T07:14:30.876Z,1019.38
2022-08-09T07:16:39.414Z,1019.38
2022-08-09T07:16:41.533Z,1019.40
2022-08-09T07:17:39.679Z,1019.36
2022-08-09T07:18:31.322Z,1019.39
2022-08-09T07:19:29.814Z,1019.38
2022-08-09T07:20:29.824Z,1019.37
2022-08-09T07:21:30.910Z,1019.39
2022-08-09T07:22:35.058Z,1019.40
2022-08-09T07:23:30.775Z,1019.36
2022-08-09T07:24:32.232Z,1019.38
2022-08-09T07:25:29.746Z,1019.35
2022-08-09T07:26:30.757Z,1019.37
2022-08-09T07:27:33.980Z,1019.37
2022-08-09T07:28:29.725Z,1019.31
2022-08-09T07:29:37.735Z,1019.36
2022-08-09T07:30:32.942Z,1019.36
2022-08-09T07:31:29.679Z,1019.38
2022-08-09T07:32:31.883Z,1019.38
2022-08-09T07:33:52.292Z,1019.39
2022-08-09T07:34:30.661Z,1019.35
2022-08-09T07:35:29.679Z,1019.37
2022-08-09T07:36:30.632Z,1019.34
2022-08-09T07:37:29.633Z,1019.33
2022-08-09T07:38:31.055Z,1019.36
2022-08-09T07:39:40.245Z,1019.34
2022-08-09T07:40:46.367Z,1019.37
2022-08-09T07:41:33.161Z,1019.35
2022-08-09T07:42:32.912Z,1019.36
2022-08-09T07:43:29.557Z,1019.34
2022-08-09T07:44:50.908Z,1019.32
2022-08-09T07:45:38.263Z,1019.32
2022-08-09T07:46:30.527Z,1019.28
2022-08-09T07:47:29.605Z,1019.32
2022-08-09T07:48:31.707Z,1019.32
2022-08-09T07:49:29.497Z,1019.31
2022-08-09T07:50:32.949Z,1019.34
2022-08-09T07:52:04.980Z,1019.33
2022-08-09T07:52:30.660Z,1019.30
2022-08-09T07:53:36.434Z,1019.35
2022-08-09T07:54:31.059Z,1019.29
2022-08-09T07:55:29.432Z,1019.29
2022-08-09T07:56:30.910Z,1019.31
2022-08-09T07:57:35.625Z,1019.23
2022-08-09T07:58:30.414Z,1019.26
2022-08-09T07:59:45.784Z,1019.33
2022-08-09T08:00:35.858Z,1019.29
2022-08-09T08:01:32.960Z,1019.31
2022-08-09T08:02:29.521Z,1019.27
2022-08-09T08:03:29.385Z,1019.29
2022-08-09T08:04:32.207Z,1019.26
2022-08-09T08:05:29.328Z,1019.23
2022-08-09T08:06:31.966Z,1019.27
2022-08-09T08:08:44.321Z,1019.28
2022-08-09T08:09:00.349Z,1019.24
2022-08-09T08:09:38.629Z,1019.26
2022-08-09T08:10:30.279Z,1019.31
2022-08-09T08:12:25.026Z,1019.28
2022-08-09T08:12:31.082Z,1019.27
2022-08-09T08:13:29.261Z,1019.30
2022-08-09T08:14:30.245Z,1019.27
2022-08-09T08:15:29.222Z,1019.27
2022-08-09T08:16:32.255Z,1019.25
2022-08-09T08:17:54.038Z,1019.25
2022-08-09T08:18:30.203Z,1019.29
2022-08-09T08:19:31.224Z,1019.22
2022-08-09T08:20:32.834Z,1019.22
2022-08-09T08:21:29.165Z,1019.21
2022-08-09T08:22:29.182Z,1019.26
2022-08-09T08:23:29.156Z,1019.27
2022-08-09T08:24:35.248Z,1019.27
2022-08-09T08:25:44.586Z,1019.26
2022-08-09T08:26:41.992Z,1019.23
2022-08-09T08:27:30.697Z,1019.22
2022-08-09T08:28:32.122Z,1019.23
2022-08-09T08:29:39.293Z,1019.15
2022-08-09T08:30:30.078Z,1019.20
2022-08-09T08:32:02.989Z,1019.21
2022-08-09T08:32:30.085Z,1019.21
2022-08-09T08:33:49.607Z,1019.22
2022-08-09T08:34:30.043Z,1019.19
2022-08-09T08:35:53.035Z,1019.20
2022-08-09T08:36:30.759Z,1019.20
2022-08-09T08:37:41.535Z,1019.18
2022-08-09T08:38:30.005Z,1019.15
2022-08-09T08:39:29.053Z,1019.15
2022-08-09T08:40:30.437Z,1019.15
2022-08-09T08:41:50.838Z,1019.15
2022-08-09T08:42:32.051Z,1019.13
2022-08-09T08:43:28.965Z,1019.10
2022-08-09T08:44:29.678Z,1019.10
2022-08-09T08:45:37.377Z,1019.12
2022-08-09T08:46:33.654Z,1019.12
2022-08-09T08:47:29.916Z,1019.14
2022-08-09T08:48:28.996Z,1019.14
2022-08-09T08:49:29.686Z,1019.11
2022-08-09T08:50:29.899Z,1019.09
2022-08-09T08:51:41.687Z,1019.16
2022-08-09T08:52:57.907Z,1019.16
2022-08-09T08:53:37.085Z,1019.19
2022-08-09T08:54:30.317Z,1019.14
2022-08-09T08:55:28.835Z,1019.16
2022-08-09T08:56:28.832Z,1019.18
2022-08-09T08:57:28.833Z,1019.19
2022-08-09T08:58:29.858Z,1019.20
2022-08-09T08:59:46.815Z,1019.16
2022-08-09T09:00:30.550Z,1019.16
2022-08-09T09:01:44.888Z,1019.16
2022-08-09T09:02:31.353Z,1019.16
2022-08-09T09:03:33.059Z,1019.14
2022-08-09T09:04:28.760Z,1019.11
2022-08-09T09:05:59.089Z,1019.12
2022-08-09T09:06:29.722Z,1019.12
2022-08-09T09:07:28.752Z,1019.14
2022-08-09T09:08:31.848Z,1019.17
2022-08-09T09:09:58.614Z,1019.17
2022-08-09T09:10:29.690Z,1019.15
2022-08-09T09:11:28.690Z,1019.19
2022-08-09T09:12:29.193Z,1019.21
2022-08-09T09:13:34.688Z,1019.20
2022-08-09T09:14:29.642Z,1019.23
2022-08-09T09:15:28.991Z,1019.16
2022-08-09T09:16:29.899Z,1019.20
2022-08-09T09:17:48.295Z,1019.24
2022-08-09T09:18:29.894Z,1019.22
2022-08-09T09:19:40.852Z,1019.20
2022-08-09T09:20:29.585Z,1019.27
2022-08-09T09:21:28.585Z,1019.28
2022-08-09T09:22:29.617Z,1019.25
2022-08-09T09:23:38.040Z,1019.23
2022-08-09T09:24:29.546Z,1019.25
2022-08-09T09:26:01.287Z,1019.24
2022-08-09T09:26:29.557Z,1019.23
2022-08-09T09:28:06.931Z,1019.26
2022-08-09T09:29:02.567Z,1019.24
2022-08-09T09:29:51.594Z,1019.26
2022-08-09T09:30:47.416Z,1019.27
2022-08-09T09:32:05.989Z,1019.29
2022-08-09T09:32:35.107Z,1019.29
2022-08-09T09:33:29.481Z,1019.28
2022-08-09T09:34:29.458Z,1019.23
2022-08-09T09:35:28.452Z,1019.25
2022-08-09T09:36:28.440Z,1019.28
2022-08-09T09:37:32.255Z,1019.30
2022-08-09T09:38:37.024Z,1019.27
2022-08-09T09:39:54.693Z,1019.27
2022-08-09T09:40:29.482Z,1019.26
2022-08-09T09:41:33.198Z,1019.25
2022-08-09T09:42:29.376Z,1019.27
2022-08-09T09:43:28.376Z,1019.27
2022-08-09T09:44:31.657Z,1019.24
2022-08-09T09:45:29.093Z,1019.24
2022-08-09T09:46:51.788Z,1019.23
2022-08-09T09:47:29.349Z,1019.21
2022-08-09T09:48:28.318Z,1019.20
2022-08-09T09:49:49.831Z,1019.21
2022-08-09T09:50:29.319Z,1019.18
2022-08-09T09:51:38.498Z,1019.18
2022-08-09T09:52:35.759Z,1019.17
2022-08-09T09:53:57.215Z,1019.20
2022-08-09T09:54:29.272Z,1019.21
2022-08-09T09:55:32.963Z,1019.16
2022-08-09T09:56:31.534Z,1019.16
2022-08-09T09:58:00.926Z,1019.12
2022-08-09T09:58:29.235Z,1019.05
2022-08-09T09:59:29.369Z,1019.09
2022-08-09T10:00:29.205Z,1019.09
2022-08-09T10:01:31.036Z,1019.06
2022-08-09T10:02:29.208Z,1019.12
2022-08-09T10:03:28.191Z,1019.05
2022-08-09T10:04:30.792Z,1019.05
2022-08-09T10:06:03.279Z,1019.04
2022-08-09T10:06:32.144Z,1019.03
2022-08-09T10:07:28.149Z,1019.06
2022-08-09T10:08:28.597Z,1019.03
2022-08-09T10:09:28.168Z,1019.03
2022-08-09T10:10:28.129Z,1019.04
2022-08-09T10:12:00.613Z,1019.00
2022-08-09T10:12:29.640Z,1018.96
2022-08-09T10:13:43.484Z,1019.00
2022-08-09T10:14:31.827Z,1019.00
2022-08-09T10:16:09.165Z,1018.98
2022-08-09T10:16:56.622Z,1018.97
2022-08-09T10:17:50.631Z,1019.01
2022-08-09T10:18:29.044Z,1018.99
2022-08-09T10:19:28.044Z,1018.94
2022-08-09T10:20:35.600Z,1018.92
2022-08-09T10:21:29.007Z,1018.97
2022-08-09T10:22:29.528Z,1018.91
2022-08-09T10:23:28.183Z,1018.89
2022-08-09T10:24:35.928Z,1018.86
2022-08-09T10:25:34.912Z,1018.88
2022-08-09T10:26:28.967Z,1018.88
2022-08-09T10:27:28.592Z,1018.83
2022-08-09T10:28:28.949Z,1018.86
2022-08-09T10:30:11.698Z,1018.83
2022-08-09T10:32:40.235Z,1018.79
2022-08-09T10:33:44.846Z,1018.78
2022-08-09T10:34:33.093Z,1018.78
2022-08-09T10:35:28.884Z,1018.78
2022-08-09T10:36:27.880Z,1018.75
2022-08-09T10:37:27.931Z,1018.75
2022-08-09T10:38:54.300Z,1018.74
2022-08-09T10:39:28.991Z,1018.72
2022-08-09T10:40:35.188Z,1018.72
2022-08-09T10:41:28.833Z,1018.72
2022-08-09T10:42:27.869Z,1018.70
2022-08-09T10:43:27.813Z,1018.71
2022-08-09T10:44:28.824Z,1018.69
2022-08-09T10:45:31.755Z,1018.71
2022-08-09T10:46:28.798Z,1018.68
2022-08-09T10:48:12.524Z,1018.68
2022-08-09T10:48:30.219Z,1018.64
2022-08-09T10:49:49.862Z,1018.64
2022-08-09T10:50:31.285Z,1018.64
2022-08-09T10:51:29.707Z,1018.64
2022-08-09T10:52:28.890Z,1018.68
2022-08-09T10:53:27.728Z,1018.68
2022-08-09T10:54:27.713Z,1018.64
2022-08-09T10:55:27.749Z,1018.67
2022-08-09T10:56:27.710Z,1018.65
2022-08-09T10:57:27.698Z,1018.63
2022-08-09T10:58:27.692Z,1018.65
2022-08-09T10:59:31.039Z,1018.64
2022-08-09T11:00:27.681Z,1018.62
2022-08-09T11:03:11.242Z,1018.59
2022-08-09T11:03:11.613Z,1018.57
2022-08-09T11:03:53.181Z,1018.58
2022-08-09T11:04:31.749Z,1018.61
2022-08-09T11:05:30.076Z,1018.58
2022-08-09T11:06:27.604Z,1018.55
2022-08-09T11:07:27.731Z,1018.60
2022-08-09T11:08:30.035Z,1018.52
2022-08-09T11:09:27.587Z,1018.55
2022-08-09T11:10:29.292Z,1018.57
2022-08-09T11:11:27.580Z,1018.54
2022-08-09T11:12:29.869Z,1018.54
2022-08-09T11:13:50.272Z,1018.53
2022-08-09T11:14:29.018Z,1018.53
2022-08-09T11:15:33.965Z,1018.52
2022-08-09T11:16:33.530Z,1018.49
2022-08-09T11:17:31.062Z,1018.52
2022-08-09T11:18:27.497Z,1018.47
2022-08-09T11:20:11.312Z,1018.46
2022-08-09T11:20:28.481Z,1018.40
2022-08-09T11:21:27.472Z,1018.39
2022-08-09T11:22:28.484Z,1018.44
2022-08-09T11:23:30.004Z,1018.38
2022-08-09T11:24:27.441Z,1018.40
2022-08-09T11:25:44.694Z,1018.37
2022-08-09T11:26:28.423Z,1018.35
2022-08-09T11:28:04.399Z,1018.39
2022-08-09T11:28:33.972Z,1018.39
2022-08-09T11:30:04.599Z,1018.38
2022-08-09T11:30:32.627Z,1018.36
2022-08-09T11:31:33.728Z,1018.36
2022-08-09T11:32:28.374Z,1018.37
2022-08-09T11:33:27.360Z,1018.37
2022-08-09T11:34:27.347Z,1018.37
2022-08-09T11:35:34.863Z,1018.35
2022-08-09T11:36:30.657Z,1018.32
2022-08-09T11:37:40.668Z,1018.30
2022-08-09T11:38:32.414Z,1018.33
2022-08-09T11:39:38.166Z,1018.32
2022-08-09T11:40:28.313Z,1018.29
2022-08-09T11:41:27.299Z,1018.24
2022-08-09T11:42:28.280Z,1018.22
2022-08-09T11:43:27.276Z,1018.19
2022-08-09T11:44:28.416Z,1018.15
2022-08-09T11:45:42.396Z,1018.19
2022-08-09T11:46:33.651Z,1018.20
2022-08-09T11:47:28.242Z,1018.22
2022-08-09T11:48:28.221Z,1018.25
2022-08-09T11:49:28.331Z,1018.22
2022-08-09T11:50:56.385Z,1018.25
2022-08-09T11:53:02.356Z,1018.23
2022-08-09T11:53:15.111Z,1018.21
2022-08-09T11:53:59.524Z,1018.21
2022-08-09T11:54:33.324Z,1018.19
2022-08-09T11:55:51.744Z,1018.20
2022-08-09T11:56:42.391Z,1018.16
2022-08-09T11:57:46.868Z,1018.17
2022-08-09T11:58:32.350Z,1018.17
2022-08-09T11:59:30.327Z,1018.15
2022-08-09T12:00:28.282Z,1018.15
2022-08-09T12:02:01.361Z,1018.18
2022-08-09T12:02:37.539Z,1018.14
2022-08-09T12:03:55.859Z,1018.14
2022-08-09T12:04:28.725Z,1018.12
2022-08-09T12:05:28.130Z,1018.09
2022-08-09T12:06:32.631Z,1018.10
2022-08-09T12:07:28.069Z,1018.07